createdAt,value
2023-04-23T00:00:58.099Z,47.03
2023-04-23T00:03:29.722Z,43.83
2023-04-23T00:06:01.063Z,50.13
2023-04-23T00:08:35.092Z,48.43
2023-04-23T00:11:06.411Z,46.63
2023-04-23T00:13:36.616Z,50.60
2023-04-23T00:16:07.456Z,48.07
2023-04-23T00:18:37.859Z,53.27
2023-04-23T00:21:08.893Z,49.57
2023-04-23T00:23:42.062Z,45.73
2023-04-23T00:26:12.088Z,48.43
2023-04-23T00:28:42.173Z,49.47
2023-04-23T00:31:12.190Z,48.67
2023-04-23T00:33:42.188Z,49.67
2023-04-23T00:36:12.241Z,49.33
2023-04-23T00:38:44.782Z,50.67
2023-04-23T00:41:15.057Z,47.37
2023-04-23T00:43:45.978Z,52.13
2023-04-23T00:46:16.987Z,49.43
2023-04-23T00:48:48.546Z,47.03
2023-04-23T00:53:53.190Z,45.43
2023-04-23T00:56:24.107Z,48.43
2023-04-23T00:58:54.700Z,45.10
2023-04-23T01:01:26.325Z,48.67
2023-04-23T01:03:57.012Z,47.13
2023-04-23T01:06:29.130Z,46.67
2023-04-23T01:09:02.066Z,48.47
2023-04-23T01:11:32.634Z,47.20
2023-04-23T01:14:02.619Z,44.90
2023-04-23T01:16:32.606Z,48.13
2023-04-23T01:19:02.634Z,51.83
2023-04-23T01:21:33.455Z,48.03
2023-04-23T01:24:06.413Z,43.57
2023-04-23T01:26:37.035Z,46.63
2023-04-23T01:29:07.132Z,42.60
2023-04-23T01:31:37.290Z,41.00
2023-04-23T01:34:07.475Z,45.43
2023-04-23T01:36:38.716Z,47.10
2023-04-23T01:39:11.823Z,47.13
2023-04-23T01:41:43.039Z,47.17
2023-04-23T01:44:13.190Z,40.20
2023-04-23T01:46:43.457Z,39.53
2023-04-23T01:49:13.888Z,45.23
2023-04-23T01:51:44.246Z,41.93
2023-04-23T01:54:16.803Z,37.87
2023-04-23T01:56:47.230Z,37.93
2023-04-23T01:59:17.068Z,37.13
2023-04-23T02:01:49.229Z,36.67
2023-04-23T02:04:20.354Z,36.97
2023-04-23T02:06:53.122Z,37.80
2023-04-23T02:09:25.620Z,39.57
2023-04-23T02:11:55.501Z,35.33
2023-04-23T02:14:25.761Z,37.67
2023-04-23T02:16:56.131Z,33.47
2023-04-23T02:19:26.690Z,35.03
2023-04-23T02:21:56.766Z,31.70
2023-04-23T02:24:29.413Z,34.47
2023-04-23T02:26:59.903Z,37.90
2023-04-23T02:29:29.789Z,35.00
2023-04-23T02:31:59.961Z,32.83
2023-04-23T02:34:30.024Z,34.30
2023-04-23T02:36:59.866Z,30.83
2023-04-23T02:39:32.660Z,31.27
2023-04-23T02:42:02.785Z,32.23
2023-04-23T02:44:32.688Z,36.80
2023-04-23T02:47:02.745Z,29.63
2023-04-23T02:49:32.844Z,34.60
2023-04-23T02:52:02.730Z,32.80
2023-04-23T02:54:37.259Z,30.93
2023-04-23T02:57:07.563Z,26.63
2023-04-23T02:59:37.551Z,29.67
2023-04-23T03:02:07.528Z,28.57
2023-04-23T03:04:37.749Z,29.70
2023-04-23T03:07:07.680Z,29.40
2023-04-23T03:09:40.477Z,33.27
2023-04-23T03:12:10.765Z,30.27
2023-04-23T03:14:41.245Z,28.23
2023-04-23T03:17:11.414Z,30.47
2023-04-23T03:19:41.305Z,33.00
2023-04-23T03:22:11.316Z,29.47
2023-04-23T03:24:43.990Z,28.80
2023-04-23T03:27:13.948Z,31.00
2023-04-23T03:29:44.296Z,31.80
2023-04-23T03:32:15.672Z,29.40
2023-04-23T03:34:45.555Z,31.67
2023-04-23T03:37:17.206Z,43.43
2023-04-23T03:39:49.871Z,31.37
2023-04-23T03:42:19.914Z,29.87
2023-04-23T03:44:49.832Z,32.23
2023-04-23T03:47:19.736Z,27.60
2023-04-23T03:49:49.773Z,35.17
2023-04-23T03:52:20.002Z,31.73
2023-04-23T03:54:52.672Z,30.80
2023-04-23T03:57:24.502Z,31.30
2023-04-23T03:59:54.362Z,30.43
2023-04-23T04:02:24.683Z,28.40
2023-04-23T04:04:55.450Z,31.70
2023-04-23T04:07:26.136Z,27.63
2023-04-23T04:09:58.690Z,30.57
2023-04-23T04:12:28.775Z,26.33
2023-04-23T04:14:58.953Z,25.23
2023-04-23T04:17:29.008Z,33.53
2023-04-23T04:19:58.938Z,24.00
2023-04-23T04:22:28.846Z,28.00
2023-04-23T04:25:01.324Z,22.67
2023-04-23T04:27:33.638Z,32.60
2023-04-23T04:30:05.754Z,28.47
2023-04-23T04:32:36.044Z,29.80
2023-04-23T04:35:05.977Z,27.23
2023-04-23T04:37:37.079Z,26.00
2023-04-23T04:40:11.793Z,31.60
2023-04-23T04:42:42.978Z,25.33
2023-04-23T04:45:14.082Z,36.13
2023-04-23T04:47:44.097Z,27.13
2023-04-23T04:50:14.745Z,30.50
2023-04-23T04:52:47.808Z,29.57
2023-04-23T04:55:20.326Z,29.03
2023-04-23T04:57:50.426Z,30.77
2023-04-23T05:00:28.021Z,31.63
2023-04-23T05:02:58.858Z,29.63
2023-04-23T05:05:30.416Z,31.60
2023-04-23T05:08:02.608Z,27.80
2023-04-23T05:10:35.307Z,31.43
2023-04-23T05:13:05.305Z,29.77
2023-04-23T05:15:35.198Z,29.83
2023-04-23T05:18:06.847Z,28.57
2023-04-23T05:20:37.013Z,28.23
2023-04-23T05:23:07.186Z,29.30
2023-04-23T05:25:39.953Z,27.43
2023-04-23T05:28:10.152Z,28.40
2023-04-23T05:30:40.153Z,25.40
2023-04-23T05:33:10.254Z,27.40
2023-04-23T05:35:40.301Z,27.80
2023-04-23T05:38:10.411Z,30.00
2023-04-23T05:40:43.040Z,23.93
2023-04-23T05:43:13.190Z,25.37
2023-04-23T05:45:46.268Z,24.77
2023-04-23T05:48:16.314Z,25.37
2023-04-23T05:50:46.671Z,24.53
2023-04-23T05:53:18.209Z,24.20
2023-04-23T05:55:50.932Z,22.57
2023-04-23T05:58:21.037Z,26.93
2023-04-23T06:00:50.995Z,22.13
2023-04-23T06:03:21.288Z,21.73
2023-04-23T06:05:51.505Z,21.20
2023-04-23T06:08:23.281Z,24.77
2023-04-23T06:10:57.237Z,22.53
2023-04-23T06:13:28.579Z,24.33
2023-04-23T06:15:58.470Z,21.13
2023-04-23T06:18:28.534Z,21.07
2023-04-23T06:20:58.375Z,20.37
2023-04-23T06:23:29.459Z,23.13
2023-04-23T06:26:02.074Z,21.40
2023-04-23T06:28:31.976Z,23.33
2023-04-23T06:31:02.894Z,21.83
2023-04-23T06:33:33.038Z,23.97
2023-04-23T06:36:03.059Z,19.97
2023-04-23T06:38:32.990Z,20.10
2023-04-23T06:41:06.470Z,18.77
2023-04-23T06:43:36.495Z,21.60
2023-04-23T06:46:06.416Z,20.83
2023-04-23T06:48:37.807Z,19.33
2023-04-23T06:51:08.345Z,20.07
2023-04-23T06:53:39.149Z,19.93
2023-04-23T06:56:12.140Z,19.70
2023-04-23T06:58:42.042Z,19.27
2023-04-23T07:01:12.164Z,23.17
2023-04-23T07:03:45.320Z,16.60
2023-04-23T07:06:15.392Z,20.27
2023-04-23T07:08:45.979Z,19.27
2023-04-23T07:11:18.554Z,16.73
2023-04-23T07:13:49.268Z,15.50
2023-04-23T07:16:21.694Z,16.53
2023-04-23T07:18:52.890Z,17.73
2023-04-23T07:21:22.863Z,14.30
2023-04-23T07:23:52.842Z,15.63
2023-04-23T07:26:25.658Z,13.40
2023-04-23T07:28:55.879Z,18.57
2023-04-23T07:31:26.211Z,15.67
2023-04-23T07:33:56.484Z,15.73
2023-04-23T07:36:26.834Z,12.73
2023-04-23T07:38:59.436Z,10.83
2023-04-23T07:41:32.067Z,15.13
2023-04-23T07:44:02.027Z,12.77
2023-04-23T07:46:32.367Z,10.83
2023-04-23T07:49:02.364Z,13.37
2023-04-23T07:51:32.343Z,11.63
2023-04-23T07:54:02.387Z,13.07
2023-04-23T07:56:35.404Z,8.83
2023-04-23T07:59:05.493Z,9.10
2023-04-23T08:01:36.092Z,10.47
2023-04-23T08:04:06.230Z,10.03
2023-04-23T08:06:39.628Z,10.97
2023-04-23T08:09:10.086Z,10.13
2023-04-23T08:11:42.743Z,9.50
2023-04-23T08:14:12.892Z,10.97
2023-04-23T08:16:42.768Z,9.80
2023-04-23T08:19:12.764Z,8.53
2023-04-23T08:21:42.776Z,10.10
2023-04-23T08:24:12.773Z,8.45
2023-04-23T08:26:45.332Z,9.53
2023-04-23T08:29:15.346Z,8.55
2023-04-23T08:31:45.428Z,14.80
2023-04-23T08:34:15.805Z,11.25
2023-04-23T08:36:46.609Z,10.50
2023-04-23T08:39:19.099Z,7.97
2023-04-23T08:41:57.858Z,6.70
2023-04-23T08:44:29.485Z,9.32
2023-04-23T08:47:01.195Z,8.35
2023-04-23T08:49:36.660Z,7.35
2023-04-23T08:52:17.947Z,7.70
2023-04-23T08:54:52.366Z,9.98
2023-04-23T08:57:25.698Z,6.35
2023-04-23T08:59:56.372Z,8.48
2023-04-23T09:02:27.361Z,4.80
2023-04-23T09:04:57.736Z,7.82
2023-04-23T09:07:28.019Z,10.38
2023-04-23T09:09:57.848Z,6.88
2023-04-23T09:12:30.913Z,4.63
2023-04-23T09:15:00.935Z,6.95
2023-04-23T09:17:33.103Z,4.82
2023-04-23T09:20:04.168Z,5.25
2023-04-23T09:22:47.076Z,5.68
2023-04-23T09:25:19.594Z,7.22
2023-04-23T09:27:54.311Z,6.68
2023-04-23T09:30:25.883Z,4.63
2023-04-23T09:32:58.295Z,5.15
2023-04-23T09:35:31.616Z,6.90
2023-04-23T09:38:08.170Z,7.95
2023-04-23T09:40:39.072Z,7.90
2023-04-23T09:43:14.039Z,4.70
2023-04-23T09:45:51.681Z,7.00
2023-04-23T09:48:21.670Z,6.00
2023-04-23T09:50:51.604Z,7.20
2023-04-23T09:53:24.361Z,4.93
2023-04-23T09:55:56.499Z,3.97
2023-04-23T09:58:29.210Z,5.40
2023-04-23T10:01:10.491Z,4.43
2023-04-23T10:03:46.231Z,4.90
2023-04-23T10:06:36.387Z,5.97
2023-04-23T10:09:08.388Z,8.15
2023-04-23T10:11:38.465Z,6.93
2023-04-23T10:14:12.124Z,3.28
2023-04-23T10:16:49.128Z,6.45
2023-04-23T10:19:22.837Z,4.90
2023-04-23T10:22:02.352Z,7.18
2023-04-23T10:24:43.819Z,7.85
2023-04-23T10:27:27.004Z,3.80
2023-04-23T10:30:10.827Z,3.88
2023-04-23T10:32:41.949Z,6.80
2023-04-23T10:35:13.111Z,9.18
2023-04-23T10:37:43.536Z,3.45
2023-04-23T10:40:16.529Z,5.68
2023-04-23T10:42:47.635Z,2.90
2023-04-23T10:45:25.437Z,4.80
2023-04-23T10:47:58.081Z,6.18
2023-04-23T10:50:30.162Z,4.97
2023-04-23T10:53:01.074Z,6.07
2023-04-23T10:55:33.004Z,3.58
2023-04-23T10:58:05.449Z,3.67
2023-04-23T11:00:49.163Z,4.57
2023-04-23T11:03:32.430Z,3.80
2023-04-23T11:06:05.171Z,3.08
2023-04-23T11:08:37.815Z,5.10
2023-04-23T11:11:11.338Z,3.75
2023-04-23T11:13:54.564Z,3.30
2023-04-23T11:16:27.289Z,2.67
2023-04-23T11:19:06.848Z,3.33
2023-04-23T11:22:01.770Z,7.45
2023-04-23T11:24:33.467Z,3.53
2023-04-23T11:27:04.540Z,5.15
2023-04-23T11:29:34.435Z,4.28
2023-04-23T11:32:10.993Z,4.85
2023-04-23T11:34:43.660Z,6.22
2023-04-23T11:37:15.811Z,3.30
2023-04-23T11:39:47.815Z,6.20
2023-04-23T11:42:20.438Z,2.53
2023-04-23T11:44:50.993Z,5.60
2023-04-23T11:47:23.836Z,4.68
2023-04-23T11:49:53.732Z,3.80
2023-04-23T11:52:23.719Z,2.92
2023-04-23T11:54:53.587Z,4.95
2023-04-23T11:57:24.834Z,3.25
2023-04-23T11:59:56.906Z,3.20
2023-04-23T12:02:29.985Z,3.53
2023-04-23T12:04:59.993Z,3.42
2023-04-23T12:07:38.356Z,5.70
2023-04-23T12:10:09.462Z,2.55
2023-04-23T12:12:40.650Z,4.70
2023-04-23T12:15:11.649Z,2.95
2023-04-23T12:17:46.827Z,3.13
2023-04-23T12:20:21.396Z,5.22
2023-04-23T12:22:51.720Z,2.38
2023-04-23T12:25:25.741Z,3.72
2023-04-23T12:27:55.628Z,3.00
2023-04-23T12:30:25.779Z,4.00
2023-04-23T12:33:02.695Z,6.43
2023-04-23T12:35:43.135Z,2.83
2023-04-23T12:38:27.530Z,3.67
2023-04-23T12:40:58.581Z,2.60
2023-04-23T12:43:30.194Z,3.88
2023-04-23T12:46:00.220Z,6.93
2023-04-23T12:48:33.382Z,2.53
2023-04-23T12:51:04.987Z,2.30
2023-04-23T12:53:34.913Z,3.90
2023-04-23T12:56:05.295Z,2.00
2023-04-23T12:58:35.246Z,3.00
2023-04-23T13:01:05.290Z,2.45
2023-04-23T13:03:37.814Z,2.55
2023-04-23T13:06:08.220Z,3.33
2023-04-23T13:08:38.310Z,2.67
2023-04-23T13:11:08.528Z,3.00
2023-04-23T13:13:38.381Z,3.17
2023-04-23T13:16:08.684Z,5.18
2023-04-23T13:18:41.327Z,5.25
2023-04-23T13:21:12.727Z,1.75
2023-04-23T13:23:42.559Z,2.42
2023-04-23T13:26:12.610Z,1.50
2023-04-23T13:28:43.024Z,3.85
2023-04-23T13:31:15.415Z,2.97
2023-04-23T13:33:47.950Z,3.75
2023-04-23T13:36:17.895Z,2.53
2023-04-23T13:38:47.821Z,2.88
2023-04-23T13:41:17.727Z,4.95
2023-04-23T13:43:47.627Z,1.38
2023-04-23T13:46:17.603Z,2.30
2023-04-23T13:48:50.145Z,5.13
2023-04-23T13:51:34.134Z,4.78
2023-04-23T13:54:05.149Z,3.45
2023-04-23T13:56:37.182Z,2.38
2023-04-23T13:59:18.420Z,2.30
2023-04-23T14:01:50.353Z,3.95
2023-04-23T14:04:25.536Z,2.90
2023-04-23T14:06:55.908Z,2.28
2023-04-23T14:09:26.151Z,4.82
2023-04-23T14:11:56.379Z,1.75
2023-04-23T14:14:26.295Z,4.63
2023-04-23T14:16:56.229Z,2.72
2023-04-23T14:19:30.648Z,2.75
2023-04-23T14:22:00.633Z,1.50
2023-04-23T14:24:37.548Z,2.55
2023-04-23T14:27:07.715Z,5.65
2023-04-23T14:29:43.268Z,1.85
2023-04-23T14:32:13.986Z,1.52
2023-04-23T14:34:47.529Z,2.08
2023-04-23T14:37:17.781Z,2.90
2023-04-23T14:39:47.724Z,3.67
2023-04-23T14:42:18.013Z,2.28
2023-04-23T14:44:47.943Z,2.75
2023-04-23T14:47:19.600Z,3.65
2023-04-23T14:49:53.394Z,4.43
2023-04-23T14:52:26.125Z,2.15
2023-04-23T14:54:56.183Z,2.08
2023-04-23T14:57:26.364Z,4.45
2023-04-23T14:59:56.698Z,1.80
2023-04-23T15:02:27.139Z,2.83
2023-04-23T15:04:59.991Z,4.28
2023-04-23T15:07:31.993Z,2.05
2023-04-23T15:10:06.475Z,2.13
2023-04-23T15:12:53.409Z,2.58
2023-04-23T15:15:48.500Z,3.10
2023-04-23T15:18:19.217Z,8.00
2023-04-23T15:20:51.777Z,2.53
2023-04-23T15:23:22.342Z,3.47
2023-04-23T15:25:52.714Z,2.80
2023-04-23T15:28:23.785Z,4.80
2023-04-23T15:30:53.746Z,3.53
2023-04-23T15:33:23.626Z,1.50
2023-04-23T15:35:59.839Z,2.05
2023-04-23T15:38:30.900Z,1.35
2023-04-23T15:41:01.281Z,1.90
2023-04-23T15:43:31.653Z,1.23
2023-04-23T15:46:01.733Z,2.03
2023-04-23T15:48:31.742Z,2.72
2023-04-23T15:51:04.388Z,2.22
2023-04-23T15:53:34.381Z,4.03
2023-04-23T15:56:05.098Z,2.65
2023-04-23T15:58:35.071Z,4.18
2023-04-23T16:01:07.628Z,1.95
2023-04-23T16:03:37.880Z,4.55
2023-04-23T16:06:12.043Z,3.88
2023-04-23T16:08:42.631Z,5.00
2023-04-23T16:11:13.526Z,7.05
2023-04-23T16:13:43.506Z,4.43
2023-04-23T16:16:13.438Z,4.28
2023-04-23T16:18:43.503Z,5.13
2023-04-23T16:21:16.450Z,4.78
2023-04-23T16:23:46.392Z,5.25
2023-04-23T16:26:16.303Z,8.38
2023-04-23T16:28:51.853Z,6.88
2023-04-23T16:31:31.019Z,3.60
2023-04-23T16:34:01.296Z,3.25
2023-04-23T16:36:37.221Z,5.60
2023-04-23T16:39:07.275Z,7.75
2023-04-23T16:41:37.276Z,4.47
2023-04-23T16:44:07.224Z,4.18
2023-04-23T16:46:37.438Z,6.15
2023-04-23T16:49:07.737Z,8.02
2023-04-23T16:51:40.324Z,8.40
2023-04-23T16:54:10.301Z,6.85
2023-04-23T16:56:40.339Z,8.43
2023-04-23T16:59:10.215Z,9.05
2023-04-23T17:01:40.318Z,7.88
2023-04-23T17:04:10.801Z,6.28
2023-04-23T17:06:43.506Z,5.13
2023-04-23T17:09:13.452Z,3.92
2023-04-23T17:11:43.296Z,5.13
2023-04-23T17:14:13.325Z,3.97
2023-04-23T17:16:43.686Z,4.93
2023-04-23T17:19:13.861Z,8.50
2023-04-23T17:21:46.746Z,5.65
2023-04-23T17:24:16.790Z,6.28
2023-04-23T17:26:48.476Z,5.20
2023-04-23T17:29:18.439Z,5.97
2023-04-23T17:31:48.599Z,7.03
2023-04-23T17:34:18.783Z,4.27
2023-04-23T17:36:51.642Z,4.33
2023-04-23T17:39:23.891Z,5.67
2023-04-23T17:41:53.940Z,4.43
2023-04-23T17:44:23.984Z,3.87
2023-04-23T17:46:55.574Z,5.20
2023-04-23T17:49:25.522Z,5.60
2023-04-23T17:51:58.140Z,4.30
2023-04-23T17:54:29.064Z,5.13
2023-04-23T17:56:59.346Z,4.70
2023-04-23T17:59:29.360Z,5.97
2023-04-23T18:01:59.476Z,6.50
2023-04-23T18:04:30.719Z,5.43
2023-04-23T18:07:03.449Z,6.60
2023-04-23T18:09:33.529Z,8.03
2023-04-23T18:12:04.303Z,7.03
2023-04-23T18:14:34.303Z,8.57
2023-04-23T18:17:04.382Z,6.40
2023-04-23T18:19:34.479Z,6.87
2023-04-23T18:22:08.481Z,4.63
2023-04-23T18:24:38.616Z,5.17
2023-04-23T18:27:08.630Z,5.60
2023-04-23T18:29:38.750Z,4.77
2023-04-23T18:32:08.868Z,6.77
2023-04-23T18:34:41.995Z,4.20
2023-04-23T18:37:35.628Z,4.60
2023-04-23T18:40:05.938Z,3.70
2023-04-23T18:42:35.931Z,4.53
2023-04-23T18:45:06.318Z,4.73
2023-04-23T18:47:44.368Z,5.23
2023-04-23T18:50:33.683Z,6.03
2023-04-23T18:53:06.419Z,4.13
2023-04-23T18:55:38.214Z,3.10
2023-04-23T18:58:08.981Z,2.83
2023-04-23T19:00:40.470Z,3.37
2023-04-23T19:03:23.665Z,2.90
2023-04-23T19:05:55.728Z,2.07
2023-04-23T19:08:29.044Z,1.73
2023-04-23T19:10:59.575Z,3.30
2023-04-23T19:13:29.579Z,2.33
2023-04-23T19:15:59.803Z,2.83
2023-04-23T19:18:31.117Z,1.70
2023-04-23T19:21:01.339Z,1.50
2023-04-23T19:23:33.888Z,2.97
2023-04-23T19:26:04.133Z,1.60
2023-04-23T19:28:34.822Z,2.47
2023-04-23T19:31:06.863Z,3.70
2023-04-23T19:33:37.756Z,2.20
2023-04-23T19:36:08.250Z,2.03
2023-04-23T19:38:42.549Z,2.80
2023-04-23T19:41:12.599Z,2.33
2023-04-23T19:43:42.744Z,1.40
2023-04-23T19:46:12.866Z,3.17
2023-04-23T19:48:42.805Z,1.67
2023-04-23T19:51:12.852Z,2.23
2023-04-23T19:53:45.557Z,1.40
2023-04-23T19:56:15.721Z,2.27
2023-04-23T19:58:46.087Z,3.23
2023-04-23T20:01:16.239Z,1.47
2023-04-23T20:03:48.122Z,2.30
2023-04-23T20:06:18.195Z,1.23
2023-04-23T20:09:07.841Z,2.70
2023-04-23T20:11:38.573Z,1.30
2023-04-23T20:14:08.637Z,1.60
2023-04-23T20:16:39.024Z,1.20
2023-04-23T20:19:11.778Z,2.10
2023-04-23T20:21:42.946Z,1.53
2023-04-23T20:24:16.950Z,2.23
2023-04-23T20:26:46.907Z,2.10
2023-04-23T20:29:17.210Z,2.07
2023-04-23T20:31:49.657Z,3.23
2023-04-23T20:34:21.528Z,1.87
2023-04-23T20:36:51.424Z,2.10
2023-04-23T20:39:24.509Z,2.10
2023-04-23T20:41:55.171Z,1.60
2023-04-23T20:44:26.322Z,1.00
2023-04-23T20:46:58.046Z,1.53
2023-04-23T20:49:28.234Z,0.73
2023-04-23T20:51:58.153Z,1.03
2023-04-23T20:54:31.332Z,2.13
2023-04-23T20:57:02.570Z,0.70
2023-04-23T20:59:32.915Z,1.00
2023-04-23T21:02:04.068Z,0.47
2023-04-23T21:04:34.075Z,1.00
2023-04-23T21:07:04.308Z,1.70
2023-04-23T21:09:37.170Z,4.23
2023-04-23T21:12:07.759Z,5.60
2023-04-23T21:14:37.653Z,4.90
2023-04-23T21:17:07.638Z,9.20
2023-04-23T21:19:37.589Z,3.30
2023-04-23T21:22:08.897Z,4.80
2023-04-23T21:24:41.628Z,3.80
2023-04-23T21:27:12.568Z,1.83
2023-04-23T21:29:42.757Z,2.60
2023-04-23T21:32:13.038Z,0.77
2023-04-23T21:34:43.142Z,1.80
2023-04-23T21:37:13.238Z,1.20
2023-04-23T21:39:46.046Z,0.90
2023-04-23T21:42:16.343Z,0.90
2023-04-23T21:44:46.456Z,1.83
2023-04-23T21:47:16.770Z,1.97
2023-04-23T21:49:46.841Z,3.43
2023-04-23T21:52:17.635Z,2.63
2023-04-23T21:54:50.333Z,1.43
2023-04-23T21:57:20.274Z,2.27
2023-04-23T21:59:50.518Z,1.23
2023-04-23T22:02:20.571Z,1.87
2023-04-23T22:04:50.692Z,2.20
2023-04-23T22:07:21.052Z,3.43
2023-04-23T22:09:53.634Z,3.77
2023-04-23T22:12:23.757Z,1.73
2023-04-23T22:14:54.096Z,3.67
2023-04-23T22:17:26.477Z,3.40
2023-04-23T22:19:57.267Z,2.00
2023-04-23T22:22:27.219Z,6.70
2023-04-23T22:24:59.799Z,2.30
2023-04-23T22:27:34.751Z,2.93
2023-04-23T22:30:06.834Z,4.07
2023-04-23T22:32:36.883Z,2.30
2023-04-23T22:35:08.093Z,3.07
2023-04-23T22:37:38.592Z,6.27
2023-04-23T22:40:13.073Z,3.03
2023-04-23T22:42:42.943Z,3.27
2023-04-23T22:45:13.772Z,2.80
2023-04-23T22:47:44.228Z,2.13
2023-04-23T22:50:14.528Z,1.60
2023-04-23T22:52:48.021Z,1.77
2023-04-23T22:55:20.883Z,1.50
2023-04-23T22:57:51.385Z,1.47
2023-04-23T23:00:21.357Z,1.27
2023-04-23T23:02:51.326Z,2.80
2023-04-23T23:05:21.638Z,1.40
2023-04-23T23:07:52.126Z,2.80
2023-04-23T23:10:24.623Z,1.20
2023-04-23T23:12:54.489Z,1.63
2023-04-23T23:15:24.787Z,1.07
2023-04-23T23:17:54.778Z,1.03
2023-04-23T23:20:24.886Z,1.63
2023-04-23T23:22:54.816Z,1.20
2023-04-23T23:25:27.334Z,2.37
2023-04-23T23:27:57.289Z,1.97
2023-04-23T23:30:27.344Z,2.83
2023-04-23T23:32:59.917Z,2.03
2023-04-23T23:35:30.185Z,4.53
2023-04-23T23:38:00.114Z,4.87
2023-04-23T23:40:32.797Z,2.97
2023-04-23T23:43:02.669Z,3.53
2023-04-23T23:45:32.722Z,2.17
2023-04-23T23:48:02.732Z,3.27
2023-04-23T23:50:32.704Z,3.27
2023-04-23T23:53:02.661Z,3.70
2023-04-23T23:55:37.891Z,3.10
2023-04-23T23:58:07.774Z,2.00
